createdAt,value
2023-03-10T00:00:50.909Z,80.06
2023-03-10T00:02:17.613Z,79.98
2023-03-10T00:03:39.006Z,80.26
2023-03-10T00:05:12.304Z,80.03
2023-03-10T00:06:48.139Z,79.90
2023-03-10T00:08:10.097Z,79.95
2023-03-10T00:09:34.236Z,80.14
2023-03-10T00:10:55.869Z,80.02
2023-03-10T00:12:18.472Z,79.92
2023-03-10T00:13:40.228Z,79.99
2023-03-10T00:15:02.172Z,79.81
2023-03-10T00:16:35.800Z,79.92
2023-03-10T00:18:21.218Z,80.08
2023-03-10T00:19:52.295Z,79.83
2023-03-10T00:21:35.014Z,79.88
2023-03-10T00:23:04.058Z,80.11
2023-03-10T00:24:28.392Z,80.10
2023-03-10T00:26:01.689Z,80.09
2023-03-10T00:27:31.033Z,80.08
2023-03-10T00:28:54.933Z,80.18
2023-03-10T00:30:18.139Z,80.16
2023-03-10T00:31:39.520Z,80.10
2023-03-10T00:33:03.054Z,80.25
2023-03-10T00:34:27.400Z,80.33
2023-03-10T00:35:58.009Z,80.31
2023-03-10T00:37:22.901Z,80.34
2023-03-10T00:38:46.538Z,80.30
2023-03-10T00:40:11.130Z,80.33
2023-03-10T00:41:44.653Z,80.12
2023-03-10T00:43:09.171Z,80.19
2023-03-10T00:44:38.077Z,80.25
2023-03-10T00:46:13.863Z,80.39
2023-03-10T00:47:37.862Z,80.36
2023-03-10T00:48:59.307Z,80.60
2023-03-10T00:50:23.767Z,80.54
2023-03-10T00:51:45.302Z,80.34
2023-03-10T00:53:15.338Z,80.44
2023-03-10T00:54:39.579Z,80.38
2023-03-10T00:56:04.230Z,80.31
2023-03-10T00:57:28.574Z,80.39
2023-03-10T00:58:50.084Z,80.49
2023-03-10T01:00:15.089Z,80.49
2023-03-10T01:01:46.196Z,80.39
2023-03-10T01:03:08.171Z,80.35
2023-03-10T01:04:30.054Z,80.37
2023-03-10T01:05:51.652Z,80.53
2023-03-10T01:07:14.151Z,80.39
2023-03-10T01:08:47.449Z,80.32
2023-03-10T01:10:09.518Z,80.54
2023-03-10T01:11:31.348Z,80.63
2023-03-10T01:12:55.060Z,80.55
2023-03-10T01:14:24.973Z,80.49
2023-03-10T01:15:48.739Z,80.56
2023-03-10T01:17:15.564Z,80.47
2023-03-10T01:18:36.855Z,80.66
2023-03-10T01:20:23.183Z,80.53
2023-03-10T01:21:51.735Z,80.53
2023-03-10T01:23:14.030Z,80.65
2023-03-10T01:24:35.607Z,80.90
2023-03-10T01:25:57.813Z,80.72
2023-03-10T01:27:22.449Z,80.63
2023-03-10T01:28:46.593Z,80.70
2023-03-10T01:30:18.064Z,80.47
2023-03-10T01:31:42.023Z,80.69
2023-03-10T01:33:03.914Z,80.53
2023-03-10T01:34:26.292Z,80.72
2023-03-10T01:35:49.232Z,80.72
2023-03-10T01:37:23.166Z,80.74
2023-03-10T01:38:44.688Z,80.69
2023-03-10T01:40:08.606Z,80.63
2023-03-10T01:41:30.497Z,80.68
2023-03-10T01:42:57.356Z,80.86
2023-03-10T01:44:20.126Z,80.82
2023-03-10T01:45:53.892Z,80.70
2023-03-10T01:47:25.490Z,80.71
2023-03-10T01:48:49.123Z,80.69
2023-03-10T01:50:18.646Z,80.54
2023-03-10T01:51:59.246Z,80.62
2023-03-10T01:53:21.502Z,80.66
2023-03-10T01:55:06.280Z,80.76
2023-03-10T01:56:37.880Z,80.76
2023-03-10T01:58:31.336Z,80.86
2023-03-10T01:59:53.264Z,80.75
2023-03-10T02:01:27.628Z,80.94
2023-03-10T02:03:12.866Z,80.87
2023-03-10T02:04:41.841Z,80.74
2023-03-10T02:06:15.641Z,80.78
2023-03-10T02:07:59.423Z,80.76
2023-03-10T02:09:45.920Z,80.84
2023-03-10T02:11:41.929Z,80.99
2023-03-10T02:13:36.951Z,80.90
2023-03-10T02:15:31.796Z,80.93
2023-03-10T02:17:26.829Z,80.83
2023-03-10T02:19:11.478Z,80.48
2023-03-10T02:20:33.426Z,80.68
2023-03-10T02:22:07.076Z,80.72
2023-03-10T02:24:00.842Z,80.74
2023-03-10T02:25:42.884Z,80.99
2023-03-10T02:27:37.838Z,80.75
2023-03-10T02:29:02.000Z,80.84
2023-03-10T02:30:35.893Z,80.90
2023-03-10T02:32:30.853Z,80.98
2023-03-10T02:34:11.597Z,80.83
2023-03-10T02:35:55.882Z,80.65
2023-03-10T02:37:30.532Z,80.95
2023-03-10T02:39:24.833Z,80.63
2023-03-10T02:40:58.729Z,80.63
2023-03-10T02:42:52.300Z,80.95
2023-03-10T02:44:46.775Z,80.92
2023-03-10T02:46:41.789Z,81.01
2023-03-10T02:48:26.725Z,80.90
2023-03-10T02:50:13.829Z,80.85
2023-03-10T02:51:37.969Z,80.84
2023-03-10T02:53:14.161Z,80.88
2023-03-10T02:54:58.874Z,81.19
2023-03-10T02:56:25.036Z,80.98
2023-03-10T02:58:10.067Z,80.99
2023-03-10T02:59:54.990Z,81.05
2023-03-10T03:01:42.386Z,81.10
2023-03-10T03:03:16.417Z,81.19
2023-03-10T03:04:52.681Z,81.20
2023-03-10T03:06:26.164Z,81.06
2023-03-10T03:08:11.318Z,81.05
2023-03-10T03:09:36.327Z,81.18
2023-03-10T03:11:17.755Z,81.33
2023-03-10T03:13:00.773Z,81.48
2023-03-10T03:14:42.284Z,81.13
2023-03-10T03:16:16.562Z,81.19
2023-03-10T03:17:41.385Z,81.29
2023-03-10T03:19:18.268Z,81.21
2023-03-10T03:21:03.245Z,81.19
2023-03-10T03:22:42.091Z,81.31
2023-03-10T03:24:36.791Z,81.19
2023-03-10T03:26:25.181Z,81.29
2023-03-10T03:28:21.780Z,81.28
2023-03-10T03:30:07.495Z,81.19
2023-03-10T03:31:52.850Z,81.17
2023-03-10T03:33:36.871Z,81.36
2023-03-10T03:35:12.648Z,81.42
2023-03-10T03:36:48.774Z,81.54
2023-03-10T03:38:37.552Z,81.53
2023-03-10T03:40:31.051Z,81.44
2023-03-10T03:42:05.030Z,81.53
2023-03-10T03:43:48.756Z,81.62
2023-03-10T03:45:25.426Z,81.61
2023-03-10T03:47:12.205Z,81.44
2023-03-10T03:48:56.793Z,81.39
2023-03-10T03:50:33.890Z,81.47
2023-03-10T03:52:32.775Z,81.54
2023-03-10T03:54:17.786Z,81.60
2023-03-10T03:56:03.021Z,81.63
2023-03-10T03:57:45.485Z,81.53
2023-03-10T03:59:10.500Z,81.68
2023-03-10T04:00:55.466Z,81.58
2023-03-10T04:02:17.673Z,81.57
2023-03-10T04:03:53.143Z,81.64
2023-03-10T04:05:38.104Z,81.62
2023-03-10T04:07:23.524Z,81.67
2023-03-10T04:09:04.324Z,81.77
2023-03-10T04:10:45.419Z,81.57
2023-03-10T04:12:30.735Z,81.84
2023-03-10T04:14:06.709Z,81.99
2023-03-10T04:15:52.076Z,82.00
2023-03-10T04:17:25.619Z,81.75
2023-03-10T04:19:07.460Z,81.74
2023-03-10T04:21:01.826Z,81.80
2023-03-10T04:22:42.952Z,81.89
2023-03-10T04:24:28.636Z,81.94
2023-03-10T04:26:13.204Z,81.85
2023-03-10T04:27:46.197Z,82.04
2023-03-10T04:29:33.711Z,82.17
2023-03-10T04:31:04.101Z,82.16
2023-03-10T04:32:38.135Z,82.02
2023-03-10T04:34:26.564Z,81.88
2023-03-10T04:36:01.664Z,81.99
2023-03-10T04:37:46.766Z,82.05
2023-03-10T04:39:41.377Z,82.01
2023-03-10T04:41:26.829Z,82.02
2023-03-10T04:43:11.687Z,82.00
2023-03-10T04:44:52.576Z,82.01
2023-03-10T04:46:46.950Z,82.14
2023-03-10T04:48:37.441Z,82.15
2023-03-10T04:50:22.669Z,82.31
2023-03-10T04:52:12.337Z,82.30
2023-03-10T04:53:48.747Z,82.38
2023-03-10T04:55:42.589Z,82.45
2023-03-10T04:57:36.341Z,82.51
2023-03-10T04:59:21.907Z,82.48
2023-03-10T05:01:03.212Z,82.49
2023-03-10T05:02:49.325Z,82.44
2023-03-10T05:04:25.478Z,82.44
2023-03-10T05:06:06.159Z,82.53
2023-03-10T05:07:53.516Z,82.79
2023-03-10T05:09:26.938Z,82.66
2023-03-10T05:11:00.212Z,82.57
2023-03-10T05:12:48.585Z,82.61
2023-03-10T05:16:37.217Z,82.75
2023-03-10T05:18:22.586Z,82.72
2023-03-10T05:20:09.217Z,82.57
2023-03-10T05:21:33.884Z,82.72
2023-03-10T05:23:07.232Z,82.75
2023-03-10T05:25:01.783Z,82.79
2023-03-10T05:26:46.858Z,82.68
2023-03-10T05:28:34.587Z,82.88
2023-03-10T05:30:28.756Z,82.98
2023-03-10T05:32:01.889Z,82.92
2023-03-10T05:33:55.177Z,82.83
2023-03-10T05:35:49.832Z,82.88
2023-03-10T05:37:23.449Z,82.73
2023-03-10T05:39:00.569Z,82.58
2023-03-10T05:40:45.735Z,82.57
2023-03-10T05:42:30.917Z,82.83
2023-03-10T05:44:16.074Z,82.80
2023-03-10T05:45:55.946Z,82.51
2023-03-10T05:47:22.527Z,82.74
2023-03-10T05:48:44.413Z,82.60
2023-03-10T05:50:29.886Z,82.44
2023-03-10T05:52:14.785Z,82.44
2023-03-10T05:53:50.665Z,82.67
2023-03-10T05:55:47.372Z,82.43
2023-03-10T05:57:24.364Z,82.23
2023-03-10T05:59:09.218Z,82.57
2023-03-10T06:00:54.229Z,82.39
2023-03-10T06:02:48.809Z,82.27
2023-03-10T06:04:41.819Z,82.30
2023-03-10T06:06:15.766Z,82.02
2023-03-10T06:08:00.459Z,82.50
2023-03-10T06:09:54.815Z,82.08
2023-03-10T06:11:42.265Z,81.95
2023-03-10T06:13:36.851Z,81.98
2023-03-10T06:15:12.973Z,82.34
2023-03-10T06:16:51.507Z,82.02
2023-03-10T06:18:32.990Z,82.15
2023-03-10T06:20:08.857Z,82.03
2023-03-10T06:21:40.025Z,81.99
2023-03-10T06:23:13.407Z,81.69
2023-03-10T06:24:48.915Z,81.63
2023-03-10T06:26:42.610Z,81.30
2023-03-10T06:28:36.218Z,81.26
2023-03-10T06:32:27.972Z,81.21
2023-03-10T06:33:54.510Z,81.07
2023-03-10T06:35:35.725Z,80.98
2023-03-10T06:37:11.683Z,81.11
2023-03-10T06:38:56.611Z,80.72
2023-03-10T06:40:30.639Z,81.05
2023-03-10T06:42:16.143Z,80.76
2023-03-10T06:44:01.873Z,80.68
2023-03-10T06:45:43.510Z,80.68
2023-03-10T06:47:37.325Z,80.67
2023-03-10T06:49:10.792Z,80.64
2023-03-10T06:50:51.722Z,80.69
2023-03-10T06:52:46.871Z,80.42
2023-03-10T06:54:22.792Z,80.38
2023-03-10T06:56:07.291Z,79.90
2023-03-10T06:57:41.193Z,79.72
2023-03-10T06:59:26.257Z,79.95
2023-03-10T07:01:06.733Z,79.84
2023-03-10T07:02:39.834Z,80.00
2023-03-10T07:04:26.249Z,79.88
2023-03-10T07:06:06.850Z,79.61
2023-03-10T07:07:51.804Z,79.55
2023-03-10T07:09:37.842Z,79.39
2023-03-10T07:11:09.614Z,79.55
2023-03-10T07:12:54.872Z,79.36
2023-03-10T07:14:35.842Z,79.38
2023-03-10T07:16:21.187Z,79.38
2023-03-10T07:17:56.720Z,79.33
2023-03-10T07:19:21.048Z,79.21
2023-03-10T07:20:54.396Z,79.35
2023-03-10T07:22:19.152Z,78.99
2023-03-10T07:23:43.551Z,79.05
2023-03-10T07:25:07.669Z,78.91
2023-03-10T07:26:37.322Z,78.97
2023-03-10T07:28:01.474Z,78.85
2023-03-10T07:29:26.391Z,78.90
2023-03-10T07:31:08.422Z,78.73
2023-03-10T07:32:52.749Z,78.66
2023-03-10T07:34:17.194Z,78.51
2023-03-10T07:35:39.186Z,78.63
2023-03-10T07:37:19.982Z,78.22
2023-03-10T07:38:53.290Z,78.31
2023-03-10T07:40:27.134Z,78.17
2023-03-10T07:42:00.399Z,78.10
2023-03-10T07:43:33.215Z,77.97
2023-03-10T07:45:06.281Z,77.68
2023-03-10T07:46:35.633Z,77.50
2023-03-10T07:48:08.912Z,77.40
2023-03-10T07:49:47.029Z,77.36
2023-03-10T07:51:22.592Z,77.36
2023-03-10T07:52:56.322Z,77.03
2023-03-10T07:54:29.930Z,77.26
2023-03-10T07:56:15.021Z,76.90
2023-03-10T07:57:53.274Z,76.89
2023-03-10T07:59:41.678Z,76.86
2023-03-10T08:01:17.794Z,76.71
2023-03-10T08:02:47.428Z,76.71
2023-03-10T08:04:32.953Z,77.01
2023-03-10T08:06:09.062Z,76.57
2023-03-10T08:07:44.897Z,76.42
2023-03-10T08:09:08.816Z,76.44
2023-03-10T08:10:42.554Z,76.18
2023-03-10T08:12:07.062Z,76.01
2023-03-10T08:13:36.554Z,76.29
2023-03-10T08:15:17.467Z,75.97
2023-03-10T08:16:57.831Z,76.00
2023-03-10T08:18:31.437Z,75.85
2023-03-10T08:20:05.059Z,76.28
2023-03-10T08:21:27.076Z,75.63
2023-03-10T08:22:50.894Z,75.89
2023-03-10T08:24:12.859Z,75.65
2023-03-10T08:25:37.111Z,75.06
2023-03-10T08:26:58.913Z,75.25
2023-03-10T08:28:23.370Z,75.27
2023-03-10T08:29:45.271Z,75.54
2023-03-10T08:31:09.450Z,75.53
2023-03-10T08:32:34.012Z,75.59
2023-03-10T08:34:07.744Z,75.50
2023-03-10T08:35:29.895Z,75.64
2023-03-10T08:36:54.213Z,75.42
2023-03-10T08:38:16.016Z,75.52
2023-03-10T08:39:37.699Z,75.15
2023-03-10T08:41:02.441Z,75.87
2023-03-10T08:42:26.653Z,75.67
2023-03-10T08:43:55.602Z,75.29
2023-03-10T08:45:17.828Z,75.00
2023-03-10T08:46:39.734Z,74.88
2023-03-10T08:48:01.712Z,74.91
2023-03-10T08:49:23.332Z,75.09
2023-03-10T08:50:49.363Z,74.80
2023-03-10T08:52:13.429Z,74.93
2023-03-10T08:53:35.213Z,74.78
2023-03-10T08:54:59.777Z,74.89
2023-03-10T08:56:22.240Z,74.60
2023-03-10T08:57:43.899Z,74.42
2023-03-10T08:59:05.233Z,74.93
2023-03-10T09:00:27.304Z,74.75
2023-03-10T09:01:49.064Z,74.81
2023-03-10T09:03:15.601Z,74.65
2023-03-10T09:04:37.132Z,74.65
2023-03-10T09:05:58.872Z,74.82
2023-03-10T09:07:40.271Z,74.57
2023-03-10T09:09:14.328Z,74.20
2023-03-10T09:10:43.521Z,74.24
2023-03-10T09:12:34.483Z,73.87
2023-03-10T09:14:00.839Z,73.74
2023-03-10T09:15:34.769Z,73.42
2023-03-10T09:16:56.453Z,72.91
2023-03-10T09:18:31.244Z,72.93
2023-03-10T09:20:12.262Z,72.67
2023-03-10T09:21:57.314Z,72.81
2023-03-10T09:23:42.445Z,72.66
2023-03-10T09:25:23.212Z,72.64
2023-03-10T09:26:56.781Z,72.63
2023-03-10T09:28:41.421Z,72.44
2023-03-10T09:30:17.739Z,72.06
2023-03-10T09:31:41.396Z,72.19
2023-03-10T09:33:17.134Z,71.91
2023-03-10T09:34:50.755Z,71.86
2023-03-10T09:36:31.536Z,71.61
2023-03-10T09:38:07.711Z,71.56
2023-03-10T09:39:41.082Z,71.55
2023-03-10T09:41:16.448Z,71.42
2023-03-10T09:42:47.609Z,71.50
2023-03-10T09:44:23.615Z,71.38
2023-03-10T09:46:08.712Z,71.15
2023-03-10T09:47:53.718Z,70.84
2023-03-10T09:49:29.294Z,70.63
2023-03-10T09:51:05.783Z,70.61
2023-03-10T09:52:34.894Z,70.43
2023-03-10T09:54:20.169Z,70.17
2023-03-10T09:55:48.029Z,70.12
2023-03-10T09:57:33.716Z,69.96
2023-03-10T09:59:14.295Z,69.80
2023-03-10T10:00:36.065Z,69.88
2023-03-10T10:02:00.155Z,69.59
2023-03-10T10:03:24.386Z,69.31
2023-03-10T10:04:53.778Z,68.71
2023-03-10T10:06:18.299Z,68.70
2023-03-10T10:07:49.927Z,68.32
2023-03-10T10:09:13.738Z,68.15
2023-03-10T10:10:36.474Z,67.99
2023-03-10T10:11:58.594Z,68.07
2023-03-10T10:13:25.053Z,67.53
2023-03-10T10:14:56.684Z,67.45
2023-03-10T10:16:33.597Z,67.51
2023-03-10T10:18:17.488Z,67.26
2023-03-10T10:19:43.025Z,66.71
2023-03-10T10:21:04.700Z,66.53
2023-03-10T10:22:38.285Z,66.38
2023-03-10T10:24:11.534Z,66.11
2023-03-10T10:25:33.301Z,66.00
2023-03-10T10:26:55.900Z,65.73
2023-03-10T10:28:20.158Z,65.60
2023-03-10T10:29:48.914Z,65.74
2023-03-10T10:31:13.003Z,65.46
2023-03-10T10:32:34.461Z,65.41
2023-03-10T10:33:56.766Z,65.52
2023-03-10T10:35:26.439Z,65.33
2023-03-10T10:36:48.444Z,64.48
2023-03-10T10:38:21.924Z,65.14
2023-03-10T10:39:43.634Z,65.09
2023-03-10T10:41:12.905Z,64.10
2023-03-10T10:42:42.458Z,64.18
2023-03-10T10:44:11.485Z,63.79
2023-03-10T10:45:33.385Z,63.13
2023-03-10T10:47:06.650Z,63.05
2023-03-10T10:48:33.262Z,62.81
2023-03-10T10:49:55.159Z,62.54
2023-03-10T10:51:28.790Z,61.92
2023-03-10T10:52:52.835Z,61.32
2023-03-10T10:54:14.790Z,60.98
2023-03-10T10:55:36.596Z,60.47
2023-03-10T10:56:58.417Z,60.07
2023-03-10T10:58:29.962Z,60.16
2023-03-10T10:59:51.625Z,60.05
2023-03-10T11:01:13.289Z,60.40
2023-03-10T11:02:34.973Z,60.35
2023-03-10T11:03:57.140Z,60.27
2023-03-10T11:05:19.429Z,60.30
2023-03-10T11:06:43.229Z,59.49
2023-03-10T11:08:05.575Z,59.13
2023-03-10T11:09:29.251Z,58.93
2023-03-10T11:10:50.699Z,58.61
2023-03-10T11:12:24.296Z,58.80
2023-03-10T11:13:46.223Z,58.72
2023-03-10T11:15:08.020Z,59.33
2023-03-10T11:16:29.949Z,59.34
2023-03-10T11:17:58.759Z,58.95
2023-03-10T11:19:22.813Z,58.21
2023-03-10T11:20:44.881Z,57.03
2023-03-10T11:22:14.226Z,55.70
2023-03-10T11:23:36.066Z,54.76
2023-03-10T11:24:57.956Z,54.49
2023-03-10T11:26:19.524Z,54.72
2023-03-10T11:27:41.245Z,54.45
2023-03-10T11:29:05.341Z,53.98
2023-03-10T11:30:34.830Z,53.72
2023-03-10T11:31:58.787Z,54.21
2023-03-10T11:33:21.037Z,54.78
2023-03-10T11:36:29.954Z,55.20
2023-03-10T11:37:52.252Z,55.43
2023-03-10T11:39:14.580Z,55.98
2023-03-10T11:40:36.257Z,56.24
2023-03-10T11:41:58.397Z,55.94
2023-03-10T11:43:20.150Z,55.81
2023-03-10T11:44:41.561Z,55.21
2023-03-10T11:46:05.807Z,55.11
2023-03-10T11:47:27.779Z,55.34
2023-03-10T11:48:49.311Z,55.47
2023-03-10T11:50:11.107Z,55.01
2023-03-10T11:51:33.006Z,55.19
2023-03-10T11:52:54.929Z,55.08
2023-03-10T11:54:16.714Z,55.03
2023-03-10T11:55:38.133Z,54.86
2023-03-10T11:56:59.881Z,54.64
2023-03-10T11:58:22.461Z,54.57
2023-03-10T11:59:43.946Z,54.64
2023-03-10T12:01:15.350Z,54.84
2023-03-10T12:02:39.431Z,55.11
2023-03-10T12:04:01.345Z,54.30
2023-03-10T12:05:25.811Z,54.44
2023-03-10T12:06:47.707Z,54.18
2023-03-10T12:08:11.618Z,54.08
2023-03-10T12:09:33.272Z,53.97
2023-03-10T12:10:55.378Z,53.66
2023-03-10T12:12:17.165Z,53.34
2023-03-10T12:13:39.388Z,53.19
2023-03-10T12:15:01.266Z,53.44
2023-03-10T12:16:25.136Z,52.87
2023-03-10T12:17:49.304Z,53.22
2023-03-10T12:19:11.161Z,52.87
2023-03-10T12:20:33.277Z,52.56
2023-03-10T12:21:54.749Z,52.96
2023-03-10T12:23:19.161Z,52.90
2023-03-10T12:24:53.131Z,52.59
2023-03-10T12:26:15.171Z,52.93
2023-03-10T12:27:36.600Z,53.24
2023-03-10T12:28:57.998Z,53.40
2023-03-10T12:30:20.202Z,53.40
2023-03-10T12:31:46.540Z,53.73
2023-03-10T12:33:08.366Z,53.68
2023-03-10T12:34:31.649Z,53.86
2023-03-10T12:35:53.449Z,54.24
2023-03-10T12:37:15.497Z,54.28
2023-03-10T12:38:37.303Z,54.20
2023-03-10T12:39:58.975Z,54.19
2023-03-10T12:41:20.765Z,53.86
2023-03-10T12:42:46.167Z,54.14
2023-03-10T12:44:07.822Z,53.94
2023-03-10T12:45:29.564Z,53.66
2023-03-10T12:46:58.238Z,53.52
2023-03-10T12:48:20.217Z,53.66
2023-03-10T12:49:41.744Z,53.65
2023-03-10T12:51:05.058Z,53.24
2023-03-10T12:52:26.646Z,53.24
2023-03-10T12:53:50.901Z,53.30
2023-03-10T12:55:15.103Z,53.04
2023-03-10T12:56:37.089Z,52.98
2023-03-10T12:58:03.655Z,52.96
2023-03-10T12:59:28.525Z,52.25
2023-03-10T13:00:52.527Z,52.35
2023-03-10T13:02:14.300Z,52.16
2023-03-10T13:03:38.380Z,51.87
2023-03-10T13:05:00.051Z,51.86
2023-03-10T13:06:22.128Z,51.60
2023-03-10T13:07:43.962Z,51.56
2023-03-10T13:09:14.533Z,51.56
2023-03-10T13:10:38.550Z,51.65
2023-03-10T13:12:00.513Z,51.05
2023-03-10T13:13:22.538Z,50.93
2023-03-10T13:14:44.051Z,50.90
2023-03-10T13:16:06.275Z,50.46
2023-03-10T13:17:27.940Z,50.33
2023-03-10T13:18:49.564Z,49.94
2023-03-10T13:20:10.988Z,49.67
2023-03-10T13:21:35.005Z,49.34
2023-03-10T13:22:59.038Z,49.31
2023-03-10T13:24:23.611Z,49.30
2023-03-10T13:25:52.851Z,49.28
2023-03-10T13:27:14.681Z,49.37
2023-03-10T13:28:38.929Z,49.45
2023-03-10T13:30:01.803Z,49.61
2023-03-10T13:31:24.077Z,49.64
2023-03-10T13:32:48.244Z,49.92
2023-03-10T13:34:10.007Z,49.70
2023-03-10T13:35:31.682Z,50.04
2023-03-10T13:36:53.120Z,50.46
2023-03-10T13:38:32.985Z,50.56
2023-03-10T13:40:07.246Z,50.89
2023-03-10T13:43:33.159Z,50.74
2023-03-10T13:44:56.485Z,50.67
2023-03-10T13:46:28.653Z,50.63
2023-03-10T13:48:14.583Z,50.47
2023-03-10T13:49:35.094Z,50.51
2023-03-10T13:50:55.563Z,50.26
2023-03-10T13:52:16.038Z,50.54
2023-03-10T13:53:36.249Z,50.64
2023-03-10T13:54:56.230Z,50.23
2023-03-10T13:56:19.317Z,49.96
2023-03-10T13:57:42.239Z,49.49
2023-03-10T13:59:03.200Z,49.82
2023-03-10T14:00:39.425Z,50.37
2023-03-10T14:02:11.679Z,50.56
2023-03-10T14:03:32.274Z,50.58
2023-03-10T14:05:00.000Z,50.70
2023-03-10T14:06:22.833Z,50.79
2023-03-10T14:07:43.383Z,50.52
2023-03-10T14:09:05.045Z,50.14
2023-03-10T14:10:28.284Z,50.24
2023-03-10T14:11:51.128Z,50.31
2023-03-10T14:13:11.250Z,50.37
2023-03-10T14:14:31.800Z,50.51
2023-03-10T14:15:52.057Z,50.13
2023-03-10T14:17:12.476Z,50.17
2023-03-10T14:18:32.885Z,50.44
2023-03-10T14:19:53.010Z,50.82
2023-03-10T14:21:15.941Z,51.28
2023-03-10T14:22:37.233Z,51.68
2023-03-10T14:23:57.553Z,51.68
2023-03-10T14:25:20.583Z,52.14
2023-03-10T14:26:42.706Z,52.29
2023-03-10T14:28:05.939Z,52.68
2023-03-10T14:29:26.539Z,52.94
2023-03-10T14:30:47.550Z,53.02
2023-03-10T14:32:11.008Z,53.17
2023-03-10T14:33:42.783Z,53.35
2023-03-10T14:35:14.884Z,53.52
2023-03-10T14:36:38.389Z,53.78
2023-03-10T14:38:01.358Z,53.99
2023-03-10T14:39:32.236Z,53.98
2023-03-10T14:41:06.450Z,54.32
2023-03-10T14:42:31.096Z,54.42
2023-03-10T14:43:51.489Z,54.45
2023-03-10T14:45:31.393Z,54.72
2023-03-10T14:47:11.649Z,54.70
2023-03-10T14:48:45.829Z,55.15
2023-03-10T14:50:29.507Z,55.04
2023-03-10T14:52:01.770Z,55.01
2023-03-10T14:53:34.934Z,54.96
2023-03-10T14:55:19.041Z,54.71
2023-03-10T14:57:11.748Z,54.50
2023-03-10T14:58:32.275Z,54.25
2023-03-10T15:00:05.895Z,54.28
2023-03-10T15:01:45.320Z,54.12
2023-03-10T15:03:17.489Z,54.21
2023-03-10T15:04:48.534Z,54.00
2023-03-10T15:06:32.126Z,53.82
2023-03-10T15:08:15.791Z,53.65
2023-03-10T15:09:54.548Z,53.49
2023-03-10T15:11:37.240Z,53.55
2023-03-10T15:13:22.133Z,53.41
2023-03-10T15:15:06.044Z,53.64
2023-03-10T15:16:38.060Z,53.73
2023-03-10T15:18:21.702Z,53.86
2023-03-10T15:20:07.674Z,54.00
2023-03-10T15:21:51.499Z,54.18
2023-03-10T15:23:35.103Z,54.24
2023-03-10T15:25:07.494Z,54.41
2023-03-10T15:26:51.336Z,54.39
2023-03-10T15:28:40.121Z,54.46
2023-03-10T15:30:23.863Z,54.81
2023-03-10T15:32:07.289Z,54.88
2023-03-10T15:33:46.322Z,55.44
2023-03-10T15:35:29.897Z,55.59
2023-03-10T15:37:13.973Z,55.68
2023-03-10T15:39:07.152Z,55.62
2023-03-10T15:40:41.476Z,56.06
2023-03-10T15:42:24.713Z,56.23
2023-03-10T15:44:08.234Z,56.40
2023-03-10T15:45:40.598Z,56.57
2023-03-10T15:47:16.795Z,56.54
2023-03-10T15:49:07.094Z,56.74
2023-03-10T15:50:47.215Z,56.98
2023-03-10T15:52:30.748Z,56.98
2023-03-10T15:54:14.462Z,56.94
2023-03-10T15:56:07.183Z,56.99
2023-03-10T15:57:50.848Z,57.30
2023-03-10T15:59:34.537Z,57.23
2023-03-10T16:01:17.980Z,57.59
2023-03-10T16:02:52.193Z,57.82
2023-03-10T16:04:31.806Z,58.00
2023-03-10T16:06:11.749Z,58.02
2023-03-10T16:07:45.858Z,58.00
2023-03-10T16:09:29.265Z,57.86
2023-03-10T16:11:22.174Z,58.40
2023-03-10T16:13:16.138Z,58.17
2023-03-10T16:14:54.960Z,58.22
2023-03-10T16:16:41.313Z,58.29
2023-03-10T16:18:24.636Z,58.25
2023-03-10T16:20:08.227Z,58.49
2023-03-10T16:21:51.934Z,58.87
2023-03-10T16:23:25.725Z,58.67
2023-03-10T16:25:15.182Z,58.73
2023-03-10T16:27:08.161Z,58.79
2023-03-10T16:28:51.808Z,59.03
2023-03-10T16:30:30.724Z,59.07
2023-03-10T16:32:14.920Z,58.92
2023-03-10T16:34:08.180Z,59.58
2023-03-10T16:35:40.431Z,59.60
2023-03-10T16:37:24.139Z,59.31
2023-03-10T16:39:08.118Z,59.85
2023-03-10T16:40:51.753Z,59.73
2023-03-10T16:42:35.521Z,59.66
2023-03-10T16:44:19.420Z,59.66
2023-03-10T16:46:07.624Z,59.68
2023-03-10T16:47:52.385Z,60.23
2023-03-10T16:49:36.076Z,60.39
2023-03-10T16:51:19.303Z,60.60
2023-03-10T16:53:08.182Z,60.52
2023-03-10T16:55:02.226Z,60.98
2023-03-10T16:56:34.223Z,61.16
2023-03-10T16:58:18.042Z,61.39
2023-03-10T17:00:01.826Z,61.52
2023-03-10T17:01:34.080Z,61.56
2023-03-10T17:03:06.284Z,61.92
2023-03-10T17:04:45.822Z,62.07
2023-03-10T17:06:17.910Z,61.88
2023-03-10T17:08:11.178Z,62.10
2023-03-10T17:09:42.985Z,62.57
2023-03-10T17:11:18.041Z,62.72
2023-03-10T17:13:07.224Z,62.87
2023-03-10T17:15:00.187Z,62.89
2023-03-10T17:16:34.610Z,63.19
2023-03-10T17:18:18.712Z,62.93
2023-03-10T17:20:05.255Z,62.91
2023-03-10T17:21:44.228Z,63.17
2023-03-10T17:23:07.717Z,63.51
2023-03-10T17:24:46.904Z,63.74
2023-03-10T17:26:30.551Z,63.67
2023-03-10T17:28:14.047Z,63.62
2023-03-10T17:30:07.171Z,63.90
2023-03-10T17:31:50.917Z,63.79
2023-03-10T17:33:44.172Z,64.16
2023-03-10T17:35:16.361Z,64.00
2023-03-10T17:37:00.221Z,64.13
2023-03-10T17:38:32.464Z,64.54
2023-03-10T17:40:16.531Z,64.59
2023-03-10T17:41:55.832Z,64.65
2023-03-10T17:43:34.061Z,64.75
2023-03-10T17:45:06.964Z,64.86
2023-03-10T17:46:58.806Z,64.91
2023-03-10T17:48:30.780Z,64.94
2023-03-10T17:49:59.396Z,65.11
2023-03-10T17:51:43.534Z,65.39
2023-03-10T17:53:27.914Z,65.19
2023-03-10T17:55:00.755Z,65.60
2023-03-10T17:56:32.487Z,65.62
2023-03-10T17:58:16.108Z,65.72
2023-03-10T17:59:50.655Z,65.84
2023-03-10T18:01:34.672Z,66.02
2023-03-10T18:02:55.512Z,66.50
2023-03-10T18:04:47.780Z,66.41
2023-03-10T18:06:21.945Z,66.49
2023-03-10T18:07:59.631Z,66.54
2023-03-10T18:09:33.785Z,66.68
2023-03-10T18:11:06.284Z,66.68
2023-03-10T18:12:36.641Z,66.42
2023-03-10T18:14:08.775Z,66.46
2023-03-10T18:15:32.193Z,66.62
2023-03-10T18:17:04.790Z,66.61
2023-03-10T18:18:48.672Z,67.00
2023-03-10T18:20:23.125Z,67.58
2023-03-10T18:22:07.599Z,67.64
2023-03-10T18:23:42.501Z,67.98
2023-03-10T18:25:21.872Z,67.77
2023-03-10T18:27:01.759Z,67.99
2023-03-10T18:28:45.036Z,68.06
2023-03-10T18:30:28.562Z,67.93
2023-03-10T18:32:12.281Z,68.04
2023-03-10T18:33:52.167Z,68.10
2023-03-10T18:35:26.416Z,68.21
2023-03-10T18:37:01.789Z,68.20
2023-03-10T18:38:34.179Z,68.90
2023-03-10T18:39:57.032Z,68.66
2023-03-10T18:41:31.681Z,69.04
2023-03-10T18:43:06.439Z,69.04
2023-03-10T18:45:00.268Z,69.61
2023-03-10T18:46:31.985Z,69.23
2023-03-10T18:47:52.835Z,68.97
2023-03-10T18:49:20.596Z,68.99
2023-03-10T18:50:53.289Z,69.07
2023-03-10T18:52:15.498Z,69.19
2023-03-10T18:53:47.957Z,69.37
2023-03-10T18:55:31.774Z,69.10
2023-03-10T18:57:11.776Z,69.01
2023-03-10T18:58:44.163Z,69.20
2023-03-10T19:00:27.825Z,69.07
2023-03-10T19:02:00.542Z,68.78
2023-03-10T19:03:34.693Z,69.01
2023-03-10T19:05:06.927Z,68.87
2023-03-10T19:06:38.977Z,68.70
2023-03-10T19:08:13.983Z,68.63
2023-03-10T19:09:54.144Z,68.42
2023-03-10T19:11:38.696Z,68.44
2023-03-10T19:13:14.069Z,68.34
2023-03-10T19:14:58.270Z,68.06
2023-03-10T19:16:21.205Z,68.30
2023-03-10T19:18:01.160Z,68.34
2023-03-10T19:19:36.033Z,68.42
2023-03-10T19:21:22.796Z,68.45
2023-03-10T19:22:50.966Z,68.61
2023-03-10T19:24:13.717Z,68.53
2023-03-10T19:25:57.707Z,68.67
2023-03-10T19:27:17.831Z,68.61
2023-03-10T19:28:42.695Z,68.69
2023-03-10T19:30:16.534Z,68.58
2023-03-10T19:31:51.480Z,68.55
2023-03-10T19:33:35.203Z,68.35
2023-03-10T19:35:07.445Z,68.31
2023-03-10T19:36:46.952Z,68.42
2023-03-10T19:38:19.030Z,68.50
2023-03-10T19:39:51.592Z,68.62
2023-03-10T19:41:11.608Z,68.67
2023-03-10T19:42:46.042Z,68.46
2023-03-10T19:44:18.099Z,68.40
2023-03-10T19:45:50.695Z,68.43
2023-03-10T19:47:25.856Z,68.45
2023-03-10T19:49:19.290Z,68.32
2023-03-10T19:50:54.464Z,68.47
2023-03-10T19:52:38.357Z,68.28
2023-03-10T19:54:02.095Z,68.23
2023-03-10T19:55:45.674Z,68.06
2023-03-10T19:57:15.927Z,68.04
2023-03-10T19:58:38.556Z,68.03
2023-03-10T20:00:06.632Z,68.08
2023-03-10T20:01:29.529Z,68.01
2023-03-10T20:03:03.290Z,68.10
2023-03-10T20:04:46.906Z,68.11
2023-03-10T20:06:30.650Z,68.06
2023-03-10T20:08:02.843Z,68.24
2023-03-10T20:09:38.244Z,68.34
2023-03-10T20:11:23.956Z,68.43
2023-03-10T20:13:15.217Z,68.23